Time;durP1;ratioP1;P1;durP2;ratioP2;P2;SDS_P1;SDS_P2;PMS_P1;PMS_P2;Temp;Humidity;BMP_temperature;BMP_pressure;BME280_temperature;BME280_humidity;BME280_pressure;Samples;Min_cycle;Max_cycle;Signal;HPM_P1;HPM_P2
2022/05/21 00:03:54;;;;;;;4.18;2.05;;;;;;;15.76;100.00;98315.03;15286497;19;20011;-81
2022/05/21 00:08:59;;;;;;;4.93;2.30;;;;;;;15.67;100.00;98325.22;15287034;19;20585;-82
2022/05/21 00:14:08;;;;;;;4.25;2.65;;;;;;;15.43;100.00;98330.03;15293038;19;20021;-81
2022/05/21 00:19:13;;;;;;;2.65;2.40;;;;;;;15.27;100.00;98354.72;15293981;19;20040;-82
2022/05/21 00:24:18;;;;;;;4.20;2.70;;;;;;;15.21;100.00;98359.06;15289069;19;20014;-79
2022/05/21 00:29:28;;;;;;;4.07;2.80;;;;;;;15.15;100.00;98374.22;15295477;19;20704;-83
2022/05/21 00:34:35;;;;;;;3.55;2.90;;;;;;;15.07;100.00;98372.47;15287192;19;20041;-82
2022/05/21 00:39:40;;;;;;;4.78;2.33;;;;;;;14.96;100.00;98378.41;15284521;19;20479;-82
2022/05/21 00:44:48;;;;;;;2.60;2.10;;;;;;;14.94;100.00;98377.75;15284709;19;20014;-82
2022/05/21 00:49:53;;;;;;;4.05;2.10;;;;;;;14.84;100.00;98390.78;15282450;19;20010;-81
2022/05/21 00:55:02;;;;;;;2.80;2.03;;;;;;;14.74;100.00;98391.06;15286358;19;20006;-80
2022/05/21 01:00:15;;;;;;;2.75;2.00;;;;;;;14.68;100.00;98389.09;15290119;19;20014;-79
2022/05/21 01:05:24;;;;;;;2.38;2.05;;;;;;;14.64;100.00;98407.59;15288063;19;20010;-83
2022/05/21 01:10:33;;;;;;;3.00;1.92;;;;;;;14.54;100.00;98404.31;15283365;19;20015;-80
2022/05/21 01:15:44;;;;;;;2.83;2.03;;;;;;;14.50;100.00;98422.81;15288515;19;20007;-83
2022/05/21 01:20:52;;;;;;;4.22;2.10;;;;;;;14.46;100.00;98435.91;15303727;19;20015;-79
2022/05/21 01:26:02;;;;;;;2.38;2.25;;;;;;;14.35;100.00;98428.25;15338275;19;20017;-80
2022/05/21 01:31:07;;;;;;;2.75;2.47;;;;;;;14.33;100.00;98451.97;15315235;19;20007;-84
2022/05/21 01:36:13;;;;;;;3.45;2.60;;;;;;;14.24;100.00;98447.66;15308887;19;20011;-82
2022/05/21 01:41:21;;;;;;;2.63;2.42;;;;;;;14.16;100.00;98444.03;15302498;19;20014;-84
2022/05/21 01:46:27;;;;;;;3.47;2.70;;;;;;;14.15;100.00;98458.59;15300316;19;20030;-84
2022/05/21 01:51:32;;;;;;;3.95;2.70;;;;;;;14.04;100.00;98453.59;15302544;19;20066;-84
2022/05/21 01:56:40;;;;;;;3.13;2.50;;;;;;;14.03;100.00;98446.50;15299875;19;20030;-83
2022/05/21 02:01:46;;;;;;;5.22;3.10;;;;;;;13.99;100.00;98480.38;15291099;19;20002;-87
2022/05/21 02:06:51;;;;;;;3.67;2.90;;;;;;;13.92;100.00;98468.63;15292565;19;20336;-82
2022/05/21 02:12:06;;;;;;;5.63;2.92;;;;;;;13.79;100.00;98478.19;15297705;19;20025;-85
2022/05/21 02:17:12;;;;;;;5.43;3.30;;;;;;;13.77;100.00;98476.66;15298602;19;20352;-85
2022/05/21 02:22:17;;;;;;;3.72;3.30;;;;;;;13.72;100.00;98485.31;15294625;19;20011;-82
2022/05/21 02:27:25;;;;;;;2.30;1.90;;;;;;;13.76;100.00;98496.66;15307149;19;20022;-85
2022/05/21 02:32:30;;;;;;;3.03;1.70;;;;;;;13.78;100.00;98491.88;15312046;19;20114;-84
2022/05/21 02:42:55;;;;;;;2.25;1.40;;;;;;;13.71;100.00;98497.19;15314997;19;20007;-84
2022/05/21 02:48:00;;;;;;;1.83;1.15;;;;;;;13.65;100.00;98514.16;15325430;19;20023;-83
2022/05/21 02:53:08;;;;;;;1.20;1.10;;;;;;;13.62;100.00;98511.78;15343144;19;20468;-86
2022/05/21 02:58:16;;;;;;;1.00;1.00;;;;;;;13.58;100.00;98522.13;15308846;19;20010;-80
2022/05/21 03:03:21;;;;;;;1.45;1.00;;;;;;;13.52;100.00;98529.09;15310694;19;20019;-80
2022/05/21 03:13:47;;;;;;;4.90;2.60;;;;;;;13.34;100.00;98569.09;15309420;19;20364;-81
2022/05/21 03:18:52;;;;;;;3.75;2.70;;;;;;;13.10;100.00;98576.28;15311126;19;20014;-81
2022/05/21 03:23:58;;;;;;;4.07;2.53;;;;;;;12.90;100.00;98583.94;15291083;19;20015;-79
2022/05/21 03:29:06;;;;;;;4.55;2.30;;;;;;;12.63;100.00;98586.00;15301108;19;20034;-79
2022/05/21 03:34:11;;;;;;;2.20;2.00;;;;;;;12.42;100.00;98598.16;15296779;19;20006;-81
2022/05/21 03:39:17;;;;;;;4.68;2.42;;;;;;;12.26;100.00;98606.25;15303143;19;20018;-79
2022/05/21 03:44:25;;;;;;;5.50;2.00;;;;;;;12.14;100.00;98606.59;15290496;19;20014;-80
2022/05/21 03:49:31;;;;;;;3.72;2.30;;;;;;;12.07;100.00;98618.22;15288645;19;20417;-79
2022/05/21 03:54:37;;;;;;;2.80;1.85;;;;;;;11.99;100.00;98617.19;15283132;19;20039;-80
2022/05/21 03:59:45;;;;;;;3.38;2.22;;;;;;;11.93;100.00;98631.34;15296788;19;20021;-79
2022/05/21 04:04:53;;;;;;;2.45;1.80;;;;;;;11.89;100.00;98632.66;15293272;19;20041;-78
2022/05/21 04:09:58;;;;;;;3.00;2.00;;;;;;;11.92;100.00;98651.25;15297924;19;20030;-78
2022/05/21 04:15:06;;;;;;;3.05;2.20;;;;;;;11.98;100.00;98653.31;15297813;19;20078;-79
2022/05/21 04:20:15;;;;;;;3.50;2.10;;;;;;;12.01;100.00;98654.81;15297346;19;20011;-79
2022/05/21 04:25:21;;;;;;;4.68;2.03;;;;;;;12.11;100.00;98657.41;15288588;19;20015;-78
2022/05/21 04:30:35;;;;;;;3.30;1.50;;;;;;;12.18;100.00;98653.88;15289102;19;20006;-79
2022/05/21 04:41:04;;;;;;;2.60;1.95;;;;;;;12.10;100.00;98671.91;15288509;19;20010;-78
2022/05/21 04:46:15;;;;;;;3.05;1.73;;;;;;;12.04;100.00;98675.28;15266955;19;20011;-78
2022/05/21 04:51:21;;;;;;;2.25;1.70;;;;;;;12.02;100.00;98679.00;15281852;19;20022;-78
2022/05/21 04:56:31;;;;;;;3.50;1.67;;;;;;;12.03;100.00;98682.50;15286370;19;20438;-77
2022/05/21 05:01:45;;;;;;;2.70;1.63;;;;;;;12.07;100.00;98689.28;15282904;19;20018;-77
2022/05/21 05:06:50;;;;;;;2.38;1.40;;;;;;;12.09;100.00;98683.72;15285056;19;20011;-78
2022/05/21 05:11:56;;;;;;;2.40;1.50;;;;;;;12.13;100.00;98685.09;15285252;19;20007;-77
2022/05/21 05:17:04;;;;;;;1.80;1.40;;;;;;;12.21;100.00;98679.69;15280117;19;20018;-79
2022/05/21 05:22:10;;;;;;;2.20;1.40;;;;;;;12.29;100.00;98681.56;15281030;19;20015;-79
2022/05/21 05:27:16;;;;;;;2.58;1.10;;;;;;;12.41;100.00;98690.19;15283468;19;20528;-78
2022/05/21 05:32:23;;;;;;;2.55;1.20;;;;;;;12.55;100.00;98683.31;15279842;19;20014;-78
2022/05/21 05:37:28;;;;;;;1.17;0.90;;;;;;;12.59;100.00;98677.38;15279169;19;20027;-78
2022/05/21 05:42:33;;;;;;;1.67;0.90;;;;;;;12.67;100.00;98679.25;15287815;19;20014;-78
2022/05/21 05:47:42;;;;;;;5.07;1.10;;;;;;;12.67;100.00;98681.97;15282045;19;20014;-78
2022/05/21 05:52:47;;;;;;;1.60;0.80;;;;;;;12.67;100.00;98683.81;15275828;19;20882;-78
2022/05/21 05:57:53;;;;;;;1.83;0.90;;;;;;;12.68;100.00;98697.16;15276442;19;20440;-77
2022/05/21 06:03:03;;;;;;;1.98;1.10;;;;;;;12.78;100.00;98675.34;15290291;19;20018;-79
2022/05/21 06:08:14;;;;;;;1.95;0.90;;;;;;;12.73;100.00;98704.78;15322198;19;20077;-77
2022/05/21 06:13:20;;;;;;;1.92;1.05;;;;;;;12.61;100.00;98693.44;15324296;19;20031;-77
2022/05/21 06:18:27;;;;;;;1.35;0.90;;;;;;;12.77;100.00;98684.47;15284890;19;20417;-77
2022/05/21 06:23:33;;;;;;;2.65;1.00;;;;;;;12.89;100.00;98691.22;15284935;19;20007;-78
2022/05/21 06:28:37;;;;;;;1.42;0.80;;;;;;;12.94;100.00;98669.94;15285800;19;20105;-80
2022/05/21 06:33:45;;;;;;;1.42;0.90;;;;;;;13.06;100.00;98688.53;15287410;19;20115;-78
2022/05/21 06:38:50;;;;;;;3.20;0.80;;;;;;;13.03;100.00;98676.19;15286256;19;20011;-79
2022/05/21 06:43:55;;;;;;;2.17;0.80;;;;;;;13.04;100.00;98674.31;15289764;19;20016;-77
2022/05/21 06:49:02;;;;;;;2.65;0.93;;;;;;;13.18;100.00;98668.22;15285087;19;20006;-78
2022/05/21 06:54:08;;;;;;;2.03;0.90;;;;;;;13.32;100.00;98671.25;15285472;19;20090;-77
2022/05/21 06:59:13;;;;;;;1.63;0.77;;;;;;;13.43;100.00;98665.50;15287569;19;20011;-77
2022/05/21 07:07:32;;;;;;;2.03;0.90;;;;;;;13.52;100.00;98672.56;15285616;19;20015;-79
2022/05/21 07:09:47;;;;;;;2.25;0.77;;;;;;;13.69;100.00;98673.34;15223616;19;20035;-77
2022/05/21 07:14:52;;;;;;;2.15;0.90;;;;;;;13.69;100.00;98673.34;15303494;19;20554;-78
2022/05/21 07:20:00;;;;;;;1.70;0.80;;;;;;;13.69;100.00;98686.06;15288786;19;20035;-78
2022/05/21 07:25:06;;;;;;;2.63;0.70;;;;;;;13.78;100.00;98671.47;15281708;19;20006;-78
2022/05/21 07:30:13;;;;;;;2.10;0.80;;;;;;;13.90;100.00;98662.94;15285529;19;20062;-77
2022/05/21 07:35:22;;;;;;;2.78;0.80;;;;;;;14.12;100.00;98667.56;15282076;19;20014;-78
2022/05/21 07:40:28;;;;;;;2.42;0.70;;;;;;;14.32;100.00;98672.50;15280579;19;20026;-78
2022/05/21 07:45:39;;;;;;;;;;;;;;;14.54;100.00;98664.56;15283964;19;20002;-78
2022/05/21 07:50:49;;;;;;;1.17;0.70;;;;;;;14.51;100.00;98676.63;15284642;19;20016;-78
2022/05/21 07:55:56;;;;;;;1.75;0.68;;;;;;;14.60;100.00;98680.13;15284170;19;20022;-78
2022/05/21 08:01:02;;;;;;;1.70;0.68;;;;;;;14.78;100.00;98675.25;15284848;19;20902;-77
2022/05/21 08:06:18;;;;;;;2.70;0.57;;;;;;;14.94;100.00;98682.41;15280126;19;20389;-78
2022/05/21 08:11:24;;;;;;;1.83;0.80;;;;;;;14.85;100.00;98671.81;15280877;19;20027;-77
2022/05/21 08:16:29;;;;;;;1.90;0.65;;;;;;;14.93;100.00;98674.47;15278403;19;20032;-78
2022/05/21 08:21:36;;;;;;;1.88;0.70;;;;;;;14.72;100.00;98689.56;15284240;19;20017;-77
2022/05/21 08:27:00;;;;;;;2.10;0.80;;;;;;;15.03;100.00;98685.91;15275783;19;20078;-78
2022/05/21 08:32:07;;;;;;;1.35;0.70;;;;;;;14.84;100.00;98686.41;15278102;19;20471;-78
2022/05/21 08:37:15;;;;;;;2.83;0.70;;;;;;;14.93;100.00;98680.72;15275657;19;20422;-77
2022/05/21 08:42:28;;;;;;;1.95;0.70;;;;;;;14.88;100.00;98698.56;15279795;19;20010;-78
2022/05/21 08:47:39;;;;;;;1.73;0.70;;;;;;;14.72;100.00;98670.56;15273420;19;20034;-77
2022/05/21 08:52:53;;;;;;;1.27;0.60;;;;;;;14.66;100.00;98683.97;15267848;19;20074;-77
2022/05/21 08:58:02;;;;;;;2.90;0.75;;;;;;;14.61;100.00;98670.97;15272706;19;20014;-77
2022/05/21 09:03:09;;;;;;;2.92;0.90;;;;;;;14.70;100.00;98694.31;15268025;19;20025;-77
2022/05/21 09:08:24;;;;;;;1.63;0.70;;;;;;;14.76;100.00;98680.00;15270929;19;20026;-78
2022/05/21 09:13:41;;;;;;;2.63;0.90;;;;;;;14.71;100.00;98687.88;15282690;19;20430;-78
2022/05/21 09:18:46;;;;;;;2.60;0.70;;;;;;;14.93;100.00;98686.13;15273381;19;20027;-77
2022/05/21 09:23:57;;;;;;;2.25;0.77;;;;;;;14.86;100.00;98695.22;15276578;19;20019;-77
2022/05/21 09:29:16;;;;;;;1.40;0.70;;;;;;;14.84;100.00;98686.41;15280325;19;20021;-77
2022/05/21 09:34:26;;;;;;;1.63;0.75;;;;;;;14.77;100.00;98700.69;15327354;19;20007;-83
2022/05/21 09:39:37;;;;;;;3.30;0.57;;;;;;;15.05;100.00;98689.28;15309027;19;20564;-79
2022/05/21 09:50:09;;;;;;;1.50;0.60;;;;;;;15.43;100.00;98693.81;15286200;19;19919;-79
2022/05/21 09:55:29;;;;;;;3.03;0.80;;;;;;;15.83;100.00;98666.34;15290103;19;20468;-79
2022/05/21 10:00:38;;;;;;;2.55;0.75;;;;;;;16.02;100.00;98665.81;15289979;19;20531;-78
2022/05/21 10:05:49;;;;;;;2.38;0.55;;;;;;;15.85;100.00;98664.34;15286846;19;20021;-62
2022/05/21 10:11:04;;;;;;;3.13;0.70;;;;;;;15.71;100.00;98671.44;15293085;19;20018;-62
2022/05/21 10:16:23;;;;;;;2.45;0.70;;;;;;;15.92;100.00;98681.59;15292989;19;20027;-61
2022/05/21 10:21:35;;;;;;;1.17;0.60;;;;;;;16.16;100.00;98674.97;15286338;19;20014;-61
2022/05/21 10:26:50;;;;;;;2.40;0.70;;;;;;;15.90;100.00;98671.91;15291630;19;20010;-61
2022/05/21 10:32:05;;;;;;;1.13;0.50;;;;;;;16.00;100.00;98672.47;15290339;19;20015;-60
2022/05/21 10:37:27;;;;;;;3.05;0.50;;;;;;;16.27;100.00;98675.50;15292130;19;20502;-60
2022/05/21 10:42:50;;;;;;;1.30;0.50;;;;;;;16.92;100.00;98662.75;15286483;19;20015;-62
2022/05/21 10:48:30;;;;;;;1.27;0.50;;;;;;;16.98;100.00;98661.16;15287857;19;20019;-63
2022/05/21 10:54:04;;;;;;;2.47;0.73;;;;;;;16.56;100.00;98677.25;15283377;19;20017;-62
2022/05/21 10:59:28;;;;;;;1.77;0.60;;;;;;;16.64;100.00;98668.16;15291871;19;20031;-61
2022/05/21 11:04:56;;;;;;;1.83;0.60;;;;;;;16.99;100.00;98662.00;15286648;19;20011;-61
2022/05/21 11:10:09;;;;;;;2.25;0.73;;;;;;;17.03;100.00;98666.00;15291260;19;20038;-61
2022/05/21 11:15:26;;;;;;;1.02;0.50;;;;;;;16.49;100.00;98679.09;15292815;19;20027;-60
2022/05/21 11:20:35;;;;;;;1.63;0.55;;;;;;;16.30;100.00;98667.78;15289970;19;20026;-60
2022/05/21 11:25:46;;;;;;;1.30;0.60;;;;;;;16.62;100.00;98673.78;15289755;19;20010;-60
2022/05/21 11:30:58;;;;;;;2.17;0.73;;;;;;;16.58;100.00;98674.38;15287681;19;20022;-61
2022/05/21 11:41:30;;;;;;;2.63;0.65;;;;;;;17.06;100.00;98660.16;15284953;19;20010;-60
2022/05/21 11:46:41;;;;;;;1.80;0.68;;;;;;;17.51;100.00;98660.69;15288174;19;20045;-61
2022/05/21 11:51:46;;;;;;;1.95;0.60;;;;;;;17.51;100.00;98681.63;15287076;19;20007;-59
2022/05/21 11:57:04;;;;;;;3.78;0.70;;;;;;;17.55;90.54;98670.13;15287430;19;20025;-62
2022/05/21 12:02:25;;;;;;;1.40;0.40;;;;;;;17.69;100.00;98662.03;15276871;19;20014;-61
2022/05/21 12:07:58;;;;;;;0.77;0.50;;;;;;;17.68;85.62;98660.38;15284480;19;20015;-61
2022/05/21 12:13:16;;;;;;;1.60;0.60;;;;;;;17.70;91.81;98680.03;15280137;19;20022;-53
2022/05/21 12:18:42;;;;;;;3.07;0.60;;;;;;;17.85;100.00;98658.97;15274928;19;20022;-57
2022/05/21 12:24:08;;;;;;;2.00;0.68;;;;;;;17.85;95.41;98675.31;15281515;19;20011;-53
2022/05/21 12:29:17;;;;;;;1.13;0.55;;;;;;;17.40;100.00;98672.13;15279086;19;20019;-52
2022/05/21 12:35:11;;;;;;;2.70;0.63;;;;;;;17.31;100.00;98687.78;15275603;19;20029;-51
2022/05/21 12:40:25;;;;;;;2.25;0.68;;;;;;;17.28;100.00;98671.00;15277840;19;20011;-56
2022/05/21 12:45:43;;;;;;;1.88;0.70;;;;;;;17.27;100.00;98663.88;15277799;19;20057;-57
2022/05/21 12:50:57;;;;;;;1.45;0.60;;;;;;;17.03;99.07;98652.38;15277457;19;20015;-52
2022/05/21 12:56:05;;;;;;;2.05;0.73;;;;;;;17.43;100.00;98652.69;15278018;19;20006;-56
2022/05/21 13:01:10;;;;;;;2.13;0.73;;;;;;;17.52;92.23;98686.88;15282141;19;20036;-57
2022/05/21 13:06:24;;;;;;;4.57;0.98;;;;;;;17.23;99.94;98663.44;15270004;19;20010;-55
2022/05/21 13:11:40;;;;;;;2.42;0.90;;;;;;;17.01;100.00;98681.66;15277118;19;20021;-56
2022/05/21 13:16:51;;;;;;;1.55;0.70;;;;;;;17.35;100.00;98669.16;15276538;19;20030;-55
2022/05/21 13:22:06;;;;;;;2.53;0.90;;;;;;;17.56;93.87;98636.41;15276615;19;20029;-53
2022/05/21 13:27:13;;;;;;;1.10;0.52;;;;;;;17.52;83.37;98648.75;15278754;19;20123;-58
2022/05/21 13:32:24;;;;;;;1.92;0.65;;;;;;;17.56;95.19;98663.66;15278156;19;20006;-51
2022/05/21 13:37:36;;;;;;;1.15;0.60;;;;;;;17.81;96.50;98660.44;15274671;19;20014;-55
2022/05/21 13:42:44;;;;;;;2.13;0.60;;;;;;;17.85;89.96;98663.59;15278571;19;20010;-58
2022/05/21 13:47:54;;;;;;;2.92;0.70;;;;;;;17.55;77.89;98653.78;15277839;19;20505;-56
2022/05/21 13:53:02;;;;;;;1.58;0.68;;;;;;;17.57;87.08;98656.31;15274147;19;20027;-51
2022/05/21 13:58:23;;;;;;;3.03;0.60;;;;;;;17.53;79.09;98688.56;15279165;19;20010;-52
2022/05/21 14:03:32;;;;;;;1.63;0.80;;;;;;;17.20;87.24;98667.41;15275345;19;20018;-55
2022/05/21 14:08:40;;;;;;;0.90;0.68;;;;;;;17.09;86.67;98662.50;15273140;19;20368;-56
2022/05/21 14:13:48;;;;;;;2.45;0.80;;;;;;;17.13;91.50;98671.94;15275302;19;20023;-51
2022/05/21 14:19:04;;;;;;;1.75;0.70;;;;;;;17.34;88.76;98659.31;15277964;19;20010;-54
2022/05/21 14:24:26;;;;;;;1.80;0.88;;;;;;;17.33;74.64;98657.63;15286467;19;20465;-51
2022/05/21 14:29:44;;;;;;;1.63;0.73;;;;;;;17.83;86.43;98652.03;15289724;19;20033;-55
2022/05/21 14:35:11;;;;;;;1.85;0.70;;;;;;;18.08;79.72;98660.56;15287936;19;20011;-53
2022/05/21 14:40:20;;;;;;;2.85;0.90;;;;;;;18.40;76.71;98666.34;15285126;19;20014;-52
2022/05/21 14:45:30;;;;;;;1.75;0.75;;;;;;;18.37;70.47;98679.50;15286594;19;20019;-56
2022/05/21 14:56:01;;;;;;;2.75;0.77;;;;;;;18.59;70.01;98661.94;15283107;19;20371;-57
2022/05/21 15:01:06;;;;;;;1.52;0.82;;;;;;;18.54;67.80;98666.34;15288656;19;20011;-57
2022/05/21 15:06:11;;;;;;;1.55;0.80;;;;;;;18.43;74.39;98675.97;15286471;19;20011;-51
2022/05/21 15:11:19;;;;;;;1.95;0.88;;;;;;;17.91;72.24;98662.75;15283990;19;20018;-57
2022/05/21 15:16:25;;;;;;;2.25;0.93;;;;;;;18.06;72.49;98651.72;15280724;19;20794;-55
2022/05/21 15:21:34;;;;;;;2.35;0.80;;;;;;;18.20;77.43;98662.69;15287082;19;20006;-52
2022/05/21 15:26:42;;;;;;;3.00;0.85;;;;;;;17.61;73.65;98649.44;15281365;19;20014;-54
2022/05/21 15:31:47;;;;;;;1.20;0.70;;;;;;;17.41;81.34;98650.13;15283848;19;20007;-53
2022/05/21 15:36:53;;;;;;;2.22;0.80;;;;;;;17.43;86.00;98647.22;15278433;19;20034;-51
2022/05/21 15:42:08;;;;;;;2.70;1.00;;;;;;;17.27;74.98;98642.09;15284963;19;20006;-56
2022/05/21 15:47:13;;;;;;;2.72;0.60;;;;;;;17.16;80.00;98640.78;15280492;19;20031;-53
2022/05/21 15:52:20;;;;;;;2.35;0.80;;;;;;;17.13;80.07;98642.00;15261540;19;20018;-56
2022/05/21 15:57:28;;;;;;;2.90;0.93;;;;;;;17.21;83.18;98633.69;15286999;19;20010;-55
2022/05/21 16:02:36;;;;;;;1.98;0.88;;;;;;;17.56;83.19;98641.84;15282504;19;20494;-53
2022/05/21 16:07:45;;;;;;;1.77;0.85;;;;;;;17.63;75.01;98632.88;15281901;19;20010;-55
2022/05/21 16:12:54;;;;;;;2.25;0.88;;;;;;;17.96;70.99;98623.97;15281646;19;20019;-52
2022/05/21 16:17:59;;;;;;;2.17;0.88;;;;;;;17.90;76.22;98622.09;15279967;19;20006;-52
2022/05/21 16:23:04;;;;;;;1.85;0.82;;;;;;;17.48;78.07;98622.94;15282545;19;20014;-54
2022/05/21 16:28:13;;;;;;;4.35;1.00;;;;;;;17.07;79.02;98607.41;15282217;19;20026;-52
2022/05/21 16:33:18;;;;;;;2.75;0.90;;;;;;;17.16;84.45;98602.66;15281702;19;20014;-53
2022/05/21 16:38:24;;;;;;;3.35;0.80;;;;;;;17.08;85.98;98590.03;15281687;19;20011;-52
2022/05/21 16:43:32;;;;;;;1.80;0.82;;;;;;;17.15;84.00;98598.25;15278338;19;20027;-53
2022/05/21 16:48:39;;;;;;;1.98;0.95;;;;;;;16.92;78.09;98607.47;15279448;19;20013;-60
2022/05/21 16:53:49;;;;;;;1.85;0.90;;;;;;;16.84;82.61;98608.47;15271830;19;20420;-59
2022/05/21 16:58:57;;;;;;;2.20;0.77;;;;;;;16.76;84.24;98603.16;15280373;19;20018;-54
2022/05/21 17:04:02;;;;;;;1.10;0.70;;;;;;;16.76;98.99;98604.00;15276386;19;20022;-56
2022/05/21 17:15:00;;;;;;;2.47;1.00;;;;;;;17.13;95.77;98603.88;15274280;19;20010;-60
2022/05/21 17:25:49;;;;;;;2.13;0.90;;;;;;;17.32;100.00;98585.16;15268491;19;19986;-54
2022/05/21 17:30:57;;;;;;;1.80;0.90;;;;;;;17.06;99.69;98587.50;15277001;19;20494;-53
2022/05/21 17:36:07;;;;;;;1.67;0.85;;;;;;;16.92;100.00;98594.69;15274560;19;20014;-51
2022/05/21 17:41:18;;;;;;;1.92;0.93;;;;;;;16.71;100.00;98594.75;15277542;19;20041;-56
2022/05/21 17:46:27;;;;;;;1.60;0.80;;;;;;;16.56;100.00;98592.94;15275440;19;20402;-53
2022/05/21 17:51:32;;;;;;;4.10;1.00;;;;;;;16.40;100.00;98594.06;15271958;19;20039;-54
2022/05/21 17:56:37;;;;;;;1.85;1.00;;;;;;;16.31;100.00;98596.06;15270915;19;20014;-56
2022/05/21 18:01:45;;;;;;;1.75;0.80;;;;;;;16.19;100.00;98592.19;15292354;19;20058;-54
2022/05/21 18:06:50;;;;;;;1.77;1.02;;;;;;;16.19;100.00;98589.47;15286227;19;20037;-58
2022/05/21 18:11:56;;;;;;;2.97;1.00;;;;;;;16.04;100.00;98599.56;15288131;19;20038;-53
2022/05/21 18:22:41;;;;;;;2.63;1.13;;;;;;;15.71;100.00;98598.94;15301078;19;20018;-78
2022/05/21 18:27:47;;;;;;;2.53;1.02;;;;;;;15.64;100.00;98598.03;15298394;19;20011;-78
2022/05/21 18:32:55;;;;;;;2.13;1.08;;;;;;;15.52;100.00;98596.81;15289743;19;20010;-77
2022/05/21 18:38:00;;;;;;;3.78;1.20;;;;;;;15.36;100.00;98589.72;15289963;19;20010;-78
2022/05/21 18:43:07;;;;;;;3.85;1.17;;;;;;;15.22;100.00;98592.25;15287283;19;20015;-77
2022/05/21 18:48:16;;;;;;;3.22;1.20;;;;;;;14.97;100.00;98586.25;15289798;19;20085;-78
2022/05/21 18:53:21;;;;;;;4.78;1.10;;;;;;;14.88;100.00;98584.63;15286640;19;20010;-78
2022/05/21 18:58:28;;;;;;;3.35;1.23;;;;;;;14.74;100.00;98595.31;15283746;19;21081;-77
2022/05/21 19:03:36;;;;;;;3.28;1.20;;;;;;;14.67;100.00;98594.34;15283332;19;20010;-77
2022/05/21 19:08:42;;;;;;;2.30;1.20;;;;;;;14.65;100.00;98601.78;15284442;19;20042;-77
2022/05/21 19:13:49;;;;;;;2.47;1.20;;;;;;;14.55;100.00;98612.03;15285253;19;20940;-78
2022/05/21 19:24:19;;;;;;;2.45;1.17;;;;;;;14.45;100.00;98602.28;15281299;19;20681;-77
2022/05/21 19:29:29;;;;;;;2.70;1.20;;;;;;;14.43;100.00;98612.47;15294454;19;20010;-78
2022/05/21 19:34:37;;;;;;;3.53;1.42;;;;;;;14.36;100.00;98621.50;15291625;19;20011;-78
2022/05/21 19:45:01;;;;;;;2.42;1.20;;;;;;;14.25;100.00;98622.78;15289598;19;20007;-78
2022/05/21 19:50:10;;;;;;;2.58;1.33;;;;;;;14.22;100.00;98634.84;15287486;19;20017;-79
2022/05/21 19:55:15;;;;;;;2.38;1.40;;;;;;;14.23;100.00;98627.53;15288883;19;20058;-79
2022/05/21 20:00:22;;;;;;;3.63;1.40;;;;;;;14.25;100.00;98628.19;15288277;19;20015;-78
2022/05/21 20:05:31;;;;;;;2.35;1.25;;;;;;;14.26;100.00;98624.47;15289223;19;20006;-80
2022/05/21 20:10:39;;;;;;;3.92;1.38;;;;;;;14.29;100.00;98626.78;15288351;19;20664;-78
2022/05/21 20:15:45;;;;;;;4.28;2.20;;;;;;;14.31;100.00;98628.31;15296947;19;20409;-79
2022/05/21 20:20:53;;;;;;;6.05;2.95;;;;;;;14.30;100.00;98623.06;15301414;19;20017;-78
2022/05/21 20:25:58;;;;;;;4.90;2.65;;;;;;;14.28;100.00;98617.00;15286452;19;20023;-79
2022/05/21 20:31:03;;;;;;;6.65;2.05;;;;;;;14.24;100.00;98615.66;15286867;19;20014;-79
2022/05/21 20:36:11;;;;;;;3.33;1.50;;;;;;;14.26;100.00;98619.03;15285958;19;20090;-78
2022/05/21 20:41:17;;;;;;;4.22;1.70;;;;;;;14.31;100.00;98606.63;15289422;19;20095;-78
2022/05/21 20:46:22;;;;;;;4.40;1.60;;;;;;;14.42;100.00;98605.34;15282754;19;20014;-78
2022/05/21 20:51:29;;;;;;;3.10;1.40;;;;;;;14.35;100.00;98604.41;15279393;19;20379;-79
2022/05/21 20:56:34;;;;;;;3.03;1.30;;;;;;;14.32;100.00;98615.59;15283473;19;20018;-79
2022/05/21 21:01:39;;;;;;;4.53;1.98;;;;;;;14.29;100.00;98602.41;15279694;19;20138;-77
2022/05/21 21:06:47;;;;;;;4.35;1.60;;;;;;;14.26;100.00;98603.63;15279693;19;20388;-78
2022/05/21 21:11:53;;;;;;;4.18;1.60;;;;;;;14.26;100.00;98610.91;15276193;19;20018;-78
2022/05/21 21:16:59;;;;;;;3.13;1.50;;;;;;;14.23;100.00;98614.81;15286603;19;20086;-78
2022/05/21 21:22:07;;;;;;;3.63;1.60;;;;;;;14.18;100.00;98615.34;15282480;19;20022;-77
2022/05/21 21:27:12;;;;;;;3.80;1.50;;;;;;;14.13;100.00;98620.47;15282832;19;20582;-77
2022/05/21 21:32:17;;;;;;;3.72;1.58;;;;;;;14.09;100.00;98618.31;15294144;19;20017;-77
2022/05/21 21:37:26;;;;;;;2.72;1.45;;;;;;;14.06;100.00;98613.25;15337596;19;20006;-77
2022/05/21 21:42:31;;;;;;;3.92;1.60;;;;;;;13.99;100.00;98613.13;15318528;19;20335;-76
2022/05/21 21:47:36;;;;;;;3.47;1.75;;;;;;;13.94;100.00;98615.50;15289921;19;20015;-77
2022/05/21 21:52:44;;;;;;;2.78;1.48;;;;;;;13.90;100.00;98614.19;15295257;19;20378;-78
2022/05/21 21:57:49;;;;;;;2.67;1.50;;;;;;;13.83;100.00;98617.59;15298087;19;20521;-77
2022/05/21 22:02:59;;;;;;;2.90;1.52;;;;;;;13.76;100.00;98611.22;15294187;19;20003;-78
2022/05/21 22:08:07;;;;;;;3.80;1.50;;;;;;;13.71;100.00;98610.88;15295179;19;20482;-78
2022/05/21 22:13:13;;;;;;;2.75;1.40;;;;;;;13.64;100.00;98608.03;15289252;19;20006;-77
2022/05/21 22:18:18;;;;;;;3.65;1.70;;;;;;;13.60;100.00;98608.56;15298224;19;20031;-78
2022/05/21 22:23:26;;;;;;;4.43;1.70;;;;;;;13.57;100.00;98604.38;15292505;19;20030;-77
2022/05/21 22:28:34;;;;;;;6.97;1.80;;;;;;;13.48;100.00;98597.31;15293059;19;20026;-77
2022/05/21 22:33:39;;;;;;;4.75;1.75;;;;;;;13.42;100.00;98596.16;15288374;19;20039;-77
2022/05/21 22:38:52;;;;;;;3.33;1.53;;;;;;;13.40;100.00;98599.03;15293262;19;20011;-77
2022/05/21 22:43:57;;;;;;;3.50;1.70;;;;;;;13.37;100.00;98593.06;15286331;19;20017;-76
2022/05/21 22:49:02;;;;;;;3.42;1.65;;;;;;;13.31;100.00;98586.50;15290937;19;20028;-77
2022/05/21 22:54:10;;;;;;;3.65;1.48;;;;;;;13.24;100.00;98583.66;15289458;19;20044;-76
2022/05/21 22:59:15;;;;;;;5.07;1.63;;;;;;;13.31;100.00;98581.09;15294164;19;20027;-76
2022/05/21 23:04:21;;;;;;;4.90;1.70;;;;;;;13.36;100.00;98580.56;15287363;19;20054;-76
2022/05/21 23:09:28;;;;;;;3.63;1.50;;;;;;;13.39;100.00;98582.94;15291666;19;20047;-78
2022/05/21 23:19:51;;;;;;;3.85;1.52;;;;;;;13.41;100.00;98583.63;15283306;19;20030;-77
2022/05/21 23:25:01;;;;;;;3.75;1.60;;;;;;;13.29;100.00;98580.41;15284306;19;20031;-77
2022/05/21 23:30:08;;;;;;;3.15;1.40;;;;;;;13.15;100.00;98576.59;15286944;19;20031;-77
2022/05/21 23:35:14;;;;;;;2.80;1.45;;;;;;;13.05;100.00;98563.25;15281592;19;20014;-77
2022/05/21 23:40:22;;;;;;;3.75;1.60;;;;;;;12.95;100.00;98560.75;15285675;19;20515;-79
2022/05/21 23:45:27;;;;;;;5.88;2.17;;;;;;;12.90;100.00;98555.03;15279763;19;20016;-77
2022/05/21 23:50:32;;;;;;;4.57;1.85;;;;;;;12.86;100.00;98547.44;15284071;19;20094;-77
2022/05/21 23:55:40;;;;;;;4.93;1.70;;;;;;;12.80;100.00;98551.66;15282722;19;20027;-77
